createdAt,value
2022-08-08T00:00:50.735Z,45.5
2022-08-08T00:01:08.254Z,45.6
2022-08-08T00:02:31.291Z,45.5
2022-08-08T00:03:00.392Z,45.5
2022-08-08T00:04:00.416Z,45.5
2022-08-08T00:05:00.400Z,45.4
2022-08-08T00:06:02.653Z,45.3
2022-08-08T00:07:00.408Z,45.5
2022-08-08T00:08:00.336Z,45.5
2022-08-08T00:09:00.430Z,45.4
2022-08-08T00:10:00.357Z,45.3
2022-08-08T00:11:00.550Z,45.2
2022-08-08T00:12:08.102Z,45.2
2022-08-08T00:13:00.389Z,45.3
2022-08-08T00:14:17.272Z,45.3
2022-08-08T00:15:03.262Z,45.2
2022-08-08T00:16:00.299Z,45.2
2022-08-08T00:17:00.302Z,45.2
2022-08-08T00:18:04.360Z,45.2
2022-08-08T00:19:00.534Z,45.1
2022-08-08T00:20:00.605Z,45.2
2022-08-08T00:21:00.710Z,45.2
2022-08-08T00:22:00.300Z,45.2
2022-08-08T00:23:00.322Z,45.3
2022-08-08T00:24:00.318Z,45.3
2022-08-08T00:25:00.481Z,45.3
2022-08-08T00:26:00.422Z,45.4
2022-08-08T00:27:00.296Z,45.4
2022-08-08T00:28:00.376Z,45.4
2022-08-08T00:29:00.300Z,45.5
2022-08-08T00:30:00.309Z,45.5
2022-08-08T00:32:28.339Z,45.5
2022-08-08T00:32:28.531Z,45.5
2022-08-08T00:33:00.302Z,45.5
2022-08-08T00:34:17.923Z,45.7
2022-08-08T00:35:00.308Z,45.6
2022-08-08T00:36:00.338Z,45.5
2022-08-08T00:37:03.366Z,45.5
2022-08-08T00:38:02.180Z,45.5
2022-08-08T00:39:00.368Z,45.4
2022-08-08T00:41:10.390Z,45.0
2022-08-08T00:41:11.652Z,45.3
2022-08-08T00:42:09.107Z,44.9
2022-08-08T00:43:11.987Z,45.1
2022-08-08T00:44:00.872Z,45.2
2022-08-08T00:45:00.801Z,45.3
2022-08-08T00:46:00.335Z,45.3
2022-08-08T00:47:00.334Z,45.2
2022-08-08T00:48:04.876Z,45.2
2022-08-08T00:49:01.008Z,45.3
2022-08-08T00:50:00.501Z,45.3
2022-08-08T00:51:00.345Z,45.1
2022-08-08T00:52:00.440Z,45.2
2022-08-08T00:53:00.685Z,45.1
2022-08-08T00:54:13.389Z,45.1
2022-08-08T00:55:00.591Z,45.1
2022-08-08T00:56:00.476Z,45.2
2022-08-08T00:57:00.291Z,45.3
2022-08-08T00:58:00.282Z,45.3
2022-08-08T00:59:00.333Z,45.4
2022-08-08T01:00:00.558Z,45.5
2022-08-08T01:01:00.627Z,45.7
2022-08-08T01:02:01.773Z,45.7
2022-08-08T01:03:58.240Z,45.7
2022-08-08T01:04:04.550Z,45.4
2022-08-08T01:05:00.291Z,45.2
2022-08-08T01:06:00.937Z,45.2
2022-08-08T01:07:01.728Z,45.1
2022-08-08T01:08:00.393Z,45.2
2022-08-08T01:09:00.305Z,45.4
2022-08-08T01:10:00.393Z,45.3
2022-08-08T01:11:00.298Z,45.4
2022-08-08T01:12:00.279Z,45.5
2022-08-08T01:13:00.349Z,45.5
2022-08-08T01:14:00.405Z,45.6
2022-08-08T01:15:00.650Z,45.7
2022-08-08T01:16:00.314Z,45.5
2022-08-08T01:17:00.317Z,45.5
2022-08-08T01:18:02.367Z,45.5
2022-08-08T01:19:02.699Z,45.6
2022-08-08T01:20:02.681Z,45.7
2022-08-08T01:21:00.327Z,45.6
2022-08-08T01:22:12.443Z,45.7
2022-08-08T01:23:00.443Z,45.7
2022-08-08T01:24:06.027Z,45.6
2022-08-08T01:25:00.349Z,45.7
2022-08-08T01:26:02.267Z,45.6
2022-08-08T01:27:00.307Z,45.5
2022-08-08T01:28:02.118Z,45.5
2022-08-08T01:29:00.771Z,45.6
2022-08-08T01:30:03.398Z,45.6
2022-08-08T01:31:00.311Z,45.5
2022-08-08T01:32:13.611Z,45.3
2022-08-08T01:33:00.296Z,45.4
2022-08-08T01:34:01.448Z,45.4
2022-08-08T01:35:00.294Z,45.4
2022-08-08T01:36:00.922Z,45.2
2022-08-08T01:37:01.772Z,45.3
2022-08-08T01:38:00.296Z,45.4
2022-08-08T01:39:00.334Z,45.5
2022-08-08T01:40:00.449Z,45.7
2022-08-08T01:41:00.364Z,45.6
2022-08-08T01:42:00.665Z,45.6
2022-08-08T01:43:00.294Z,45.7
2022-08-08T01:44:00.315Z,45.8
2022-08-08T01:45:00.493Z,45.8
2022-08-08T01:46:00.310Z,45.7
2022-08-08T01:47:00.311Z,45.7
2022-08-08T01:48:16.221Z,45.7
2022-08-08T01:49:00.383Z,45.7
2022-08-08T01:50:00.319Z,45.8
2022-08-08T01:51:00.282Z,45.9
2022-08-08T01:52:41.642Z,46.0
2022-08-08T01:55:17.508Z,46.1
2022-08-08T01:55:17.848Z,46.1
2022-08-08T01:55:46.217Z,46.1
2022-08-08T01:56:28.800Z,46.3
2022-08-08T01:57:00.302Z,46.3
2022-08-08T01:58:10.979Z,46.2
2022-08-08T01:59:02.713Z,46.2
2022-08-08T02:00:01.657Z,46.4
2022-08-08T02:01:00.445Z,46.6
2022-08-08T02:02:05.038Z,46.6
2022-08-08T02:03:00.491Z,46.4
2022-08-08T02:04:00.342Z,46.3
2022-08-08T02:05:00.310Z,46.3
2022-08-08T02:06:00.455Z,46.3
2022-08-08T02:07:00.484Z,46.2
2022-08-08T02:08:00.318Z,45.9
2022-08-08T02:09:00.347Z,45.9
2022-08-08T02:10:04.149Z,45.9
2022-08-08T02:11:00.443Z,46.0
2022-08-08T02:12:00.919Z,45.8
2022-08-08T02:13:00.313Z,45.8
2022-08-08T02:14:00.295Z,45.7
2022-08-08T02:15:00.935Z,45.5
2022-08-08T02:16:00.295Z,45.2
2022-08-08T02:17:00.357Z,45.2
2022-08-08T02:18:00.385Z,45.4
2022-08-08T02:19:00.411Z,45.4
2022-08-08T02:20:09.310Z,45.6
2022-08-08T02:21:05.487Z,45.8
2022-08-08T02:22:00.369Z,45.8
2022-08-08T02:23:00.306Z,45.8
2022-08-08T02:24:00.276Z,45.8
2022-08-08T02:25:00.314Z,45.7
2022-08-08T02:26:00.657Z,45.8
2022-08-08T02:27:00.977Z,45.7
2022-08-08T02:28:01.019Z,45.7
2022-08-08T02:29:00.298Z,45.6
2022-08-08T02:30:00.455Z,45.5
2022-08-08T02:31:02.052Z,45.6
2022-08-08T02:32:04.597Z,45.6
2022-08-08T02:33:00.369Z,45.8
2022-08-08T02:34:08.565Z,45.9
2022-08-08T02:35:08.616Z,45.9
2022-08-08T02:36:04.349Z,46.0
2022-08-08T02:37:00.415Z,45.9
2022-08-08T02:38:00.342Z,46.1
2022-08-08T02:39:40.067Z,46.0
2022-08-08T02:40:00.755Z,45.8
2022-08-08T02:41:00.403Z,45.9
2022-08-08T02:42:03.670Z,46.0
2022-08-08T02:44:35.289Z,46.1
2022-08-08T02:44:38.658Z,46.2
2022-08-08T02:45:00.502Z,46.3
2022-08-08T02:46:00.301Z,46.3
2022-08-08T02:47:00.304Z,46.0
2022-08-08T02:48:00.519Z,45.9
2022-08-08T02:49:00.437Z,45.8
2022-08-08T02:50:00.299Z,45.8
2022-08-08T02:51:00.382Z,45.7
2022-08-08T02:52:04.459Z,45.8
2022-08-08T02:53:00.282Z,45.8
2022-08-08T02:54:00.480Z,45.8
2022-08-08T02:55:02.277Z,45.8
2022-08-08T02:56:00.332Z,46.0
2022-08-08T02:57:00.464Z,46.0
2022-08-08T02:58:01.631Z,46.2
2022-08-08T02:59:00.313Z,46.4
2022-08-08T03:00:26.791Z,46.3
2022-08-08T03:01:00.423Z,46.3
2022-08-08T03:02:00.400Z,46.3
2022-08-08T03:03:00.549Z,46.2
2022-08-08T03:05:04.102Z,46.1
2022-08-08T03:05:09.427Z,46.2
2022-08-08T03:06:00.462Z,46.2
2022-08-08T03:07:00.697Z,45.9
2022-08-08T03:08:00.298Z,45.9
2022-08-08T03:09:00.376Z,45.7
2022-08-08T03:10:00.474Z,45.6
2022-08-08T03:11:00.386Z,45.5
2022-08-08T03:12:03.120Z,45.5
2022-08-08T03:13:02.591Z,45.6
2022-08-08T03:15:58.851Z,45.5
2022-08-08T03:16:00.049Z,45.2
2022-08-08T03:16:05.133Z,44.8
2022-08-08T03:17:00.430Z,44.8
2022-08-08T03:18:04.905Z,44.9
2022-08-08T03:19:00.321Z,45.2
2022-08-08T03:20:03.547Z,45.3
2022-08-08T03:21:00.299Z,45.4
2022-08-08T03:22:00.706Z,45.9
2022-08-08T03:23:00.792Z,46.3
2022-08-08T03:24:01.951Z,46.6
2022-08-08T03:25:00.301Z,46.8
2022-08-08T03:26:00.318Z,46.8
2022-08-08T03:27:00.386Z,46.9
2022-08-08T03:28:00.514Z,47.0
2022-08-08T03:29:00.395Z,47.3
2022-08-08T03:30:00.360Z,47.0
2022-08-08T03:31:22.317Z,46.8
2022-08-08T03:32:05.773Z,47.1
2022-08-08T03:33:07.467Z,47.0
2022-08-08T03:34:00.660Z,47.2
2022-08-08T03:35:00.337Z,47.5
2022-08-08T03:36:00.372Z,47.6
2022-08-08T03:37:00.404Z,47.5
2022-08-08T03:38:57.562Z,47.4
2022-08-08T03:39:14.556Z,47.2
2022-08-08T03:40:02.160Z,47.4
2022-08-08T03:41:03.220Z,47.3
2022-08-08T03:42:12.879Z,47.2
2022-08-08T03:43:16.462Z,47.2
2022-08-08T03:44:00.282Z,47.1
2022-08-08T03:45:02.232Z,47.1
2022-08-08T03:46:07.481Z,47.0
2022-08-08T03:47:00.265Z,46.9
2022-08-08T03:48:00.316Z,46.7
2022-08-08T03:49:30.873Z,46.4
2022-08-08T03:50:02.305Z,46.4
2022-08-08T03:51:00.319Z,46.4
2022-08-08T03:52:00.647Z,46.4
2022-08-08T03:53:00.361Z,46.2
2022-08-08T03:54:00.375Z,46.3
2022-08-08T03:55:09.651Z,46.3
2022-08-08T03:56:04.601Z,46.4
2022-08-08T03:57:00.375Z,46.2
2022-08-08T03:58:33.575Z,46.2
2022-08-08T03:59:00.594Z,45.9
2022-08-08T04:00:11.188Z,45.8
2022-08-08T04:01:02.044Z,45.9
2022-08-08T04:02:31.804Z,46.0
2022-08-08T04:03:01.535Z,46.0
2022-08-08T04:04:01.938Z,45.9
2022-08-08T04:05:00.296Z,45.6
2022-08-08T04:06:00.415Z,45.5
2022-08-08T04:07:01.218Z,45.3
2022-08-08T04:08:00.725Z,45.0
2022-08-08T04:09:10.700Z,45.1
2022-08-08T04:10:05.182Z,45.0
2022-08-08T04:11:00.419Z,45.0
2022-08-08T04:12:00.605Z,44.9
2022-08-08T04:13:00.371Z,44.5
2022-08-08T04:14:04.318Z,44.6
2022-08-08T04:15:00.427Z,44.6
2022-08-08T04:16:05.541Z,44.5
2022-08-08T04:17:00.350Z,44.4
2022-08-08T04:18:00.363Z,44.4
2022-08-08T04:19:00.603Z,44.4
2022-08-08T04:20:01.997Z,44.3
2022-08-08T04:21:00.360Z,44.2
2022-08-08T04:22:00.300Z,44.1
2022-08-08T04:23:03.576Z,44.2
2022-08-08T04:24:05.465Z,44.1
2022-08-08T04:25:00.269Z,43.9
2022-08-08T04:26:03.117Z,44.0
2022-08-08T04:27:00.609Z,43.9
2022-08-08T04:28:35.025Z,43.5
2022-08-08T04:29:00.285Z,43.1
2022-08-08T04:30:00.807Z,42.8
2022-08-08T04:31:01.158Z,42.4
2022-08-08T04:32:00.676Z,41.8
2022-08-08T04:33:00.295Z,41.5
2022-08-08T04:34:00.269Z,41.1
2022-08-08T04:35:00.371Z,41.0
2022-08-08T04:36:00.272Z,40.5
2022-08-08T04:37:03.676Z,40.6
2022-08-08T04:38:00.272Z,40.3
2022-08-08T04:39:47.833Z,40.1
2022-08-08T04:40:05.373Z,39.0
2022-08-08T04:41:00.473Z,39.2
2022-08-08T04:42:00.440Z,39.1
2022-08-08T04:43:01.617Z,39.4
2022-08-08T04:44:00.295Z,38.9
2022-08-08T04:45:00.351Z,38.6
2022-08-08T04:46:00.355Z,38.5
2022-08-08T04:47:00.382Z,38.6
2022-08-08T04:48:00.670Z,38.5
2022-08-08T04:49:00.318Z,38.0
2022-08-08T04:50:04.790Z,36.3
2022-08-08T04:51:00.366Z,33.2
2022-08-08T04:52:00.337Z,31.0
2022-08-08T04:53:05.113Z,29.7
2022-08-08T04:54:38.886Z,28.4
2022-08-08T04:55:00.313Z,28.6
2022-08-08T04:56:00.334Z,27.9
2022-08-08T04:57:00.375Z,27.4
2022-08-08T04:58:00.307Z,27.0
2022-08-08T04:59:00.382Z,26.8
2022-08-08T05:00:00.319Z,26.8
2022-08-08T05:01:08.893Z,26.3
2022-08-08T05:02:00.818Z,26.3
2022-08-08T05:03:00.307Z,26.2
2022-08-08T05:04:10.586Z,25.4
2022-08-08T05:05:00.713Z,25.5
2022-08-08T05:06:00.308Z,25.8
2022-08-08T05:07:00.309Z,25.0
2022-08-08T05:08:00.318Z,24.6
2022-08-08T05:09:03.010Z,24.4
2022-08-08T05:10:00.333Z,24.1
2022-08-08T05:11:00.422Z,23.9
2022-08-08T05:12:00.374Z,23.7
2022-08-08T05:13:02.114Z,23.6
2022-08-08T05:14:02.032Z,22.3
2022-08-08T05:15:00.414Z,21.9
2022-08-08T05:16:52.196Z,22.1
2022-08-08T05:17:01.517Z,21.4
2022-08-08T05:18:00.336Z,21.4
2022-08-08T05:19:00.352Z,21.6
2022-08-08T05:20:09.884Z,21.8
2022-08-08T05:21:00.318Z,21.4
2022-08-08T05:22:00.829Z,21.4
2022-08-08T05:23:00.447Z,21.0
2022-08-08T05:24:08.538Z,21.3
2022-08-08T05:25:00.371Z,21.6
2022-08-08T05:26:00.509Z,22.6
2022-08-08T05:27:00.286Z,23.8
2022-08-08T05:28:00.319Z,24.0
2022-08-08T05:29:06.132Z,23.8
2022-08-08T05:30:00.333Z,22.8
2022-08-08T05:31:08.558Z,23.0
2022-08-08T05:32:03.924Z,22.9
2022-08-08T05:33:03.229Z,22.5
2022-08-08T05:34:00.287Z,22.5
2022-08-08T05:35:04.403Z,22.4
2022-08-08T05:36:00.313Z,22.3
2022-08-08T05:37:00.285Z,22.1
2022-08-08T05:38:00.298Z,21.8
2022-08-08T05:39:00.445Z,21.4
2022-08-08T05:40:00.378Z,21.2
2022-08-08T05:41:00.313Z,20.4
2022-08-08T05:42:00.372Z,19.8
2022-08-08T05:43:01.575Z,19.8
2022-08-08T05:44:03.272Z,19.8
2022-08-08T05:45:00.815Z,19.7
2022-08-08T05:46:03.249Z,19.8
2022-08-08T05:47:02.723Z,19.9
2022-08-08T05:48:08.305Z,20.9
2022-08-08T05:49:00.290Z,21.3
2022-08-08T05:50:00.303Z,21.8
2022-08-08T05:51:15.144Z,22.2
2022-08-08T05:52:00.393Z,21.7
2022-08-08T05:53:53.719Z,22.0
2022-08-08T05:54:28.103Z,22.6
2022-08-08T05:55:04.507Z,22.2
2022-08-08T05:56:10.476Z,22.7
2022-08-08T05:57:00.311Z,22.3
2022-08-08T05:58:05.083Z,22.2
2022-08-08T05:59:03.925Z,21.7
2022-08-08T06:00:22.618Z,21.5
2022-08-08T06:01:00.396Z,21.5
2022-08-08T06:02:00.448Z,21.3
2022-08-08T06:03:00.396Z,21.2
2022-08-08T06:04:03.707Z,21.3
2022-08-08T06:05:00.285Z,21.3
2022-08-08T06:06:01.409Z,20.9
2022-08-08T06:07:01.929Z,20.9
2022-08-08T06:08:01.954Z,21.3
2022-08-08T06:09:41.661Z,21.2
2022-08-08T06:10:02.260Z,20.8
2022-08-08T06:11:00.307Z,20.7
2022-08-08T06:12:00.366Z,20.6
2022-08-08T06:13:00.307Z,20.0
2022-08-08T06:14:00.299Z,19.8
2022-08-08T06:15:00.354Z,19.9
2022-08-08T06:16:00.407Z,20.3
2022-08-08T06:17:00.380Z,20.3
2022-08-08T06:18:21.167Z,20.2
2022-08-08T06:19:00.287Z,20.6
2022-08-08T06:20:00.297Z,20.5
2022-08-08T06:21:03.603Z,20.3
2022-08-08T06:22:00.673Z,20.3
2022-08-08T06:23:00.329Z,20.6
2022-08-08T06:24:03.403Z,20.4
2022-08-08T06:25:00.289Z,20.5
2022-08-08T06:26:43.577Z,20.1
2022-08-08T06:27:00.296Z,20.1
2022-08-08T06:28:00.391Z,19.6
2022-08-08T06:29:02.445Z,19.2
2022-08-08T06:30:02.124Z,19.2
2022-08-08T06:31:00.397Z,19.8
2022-08-08T06:32:10.779Z,20.1
2022-08-08T06:33:01.310Z,20.2
2022-08-08T06:34:27.276Z,20.6
2022-08-08T06:36:04.159Z,20.4
2022-08-08T06:36:07.677Z,20.6
2022-08-08T06:37:00.473Z,21.5
2022-08-08T06:38:00.294Z,22.2
2022-08-08T06:39:00.360Z,23.5
2022-08-08T06:40:00.787Z,22.6
2022-08-08T06:41:00.300Z,22.3
2022-08-08T06:42:00.299Z,22.4
2022-08-08T06:43:00.406Z,22.3
2022-08-08T06:44:00.299Z,22.0
2022-08-08T06:45:00.313Z,21.9
2022-08-08T06:46:00.400Z,21.8
2022-08-08T06:47:00.361Z,21.7
2022-08-08T06:48:01.859Z,21.6
2022-08-08T06:49:00.447Z,21.3
2022-08-08T06:50:00.295Z,21.2
2022-08-08T06:51:02.421Z,21.1
2022-08-08T06:52:00.390Z,21.0
2022-08-08T06:53:00.397Z,20.9
2022-08-08T06:54:00.839Z,20.4
2022-08-08T06:55:00.300Z,19.9
2022-08-08T06:56:01.970Z,20.2
2022-08-08T06:57:00.284Z,20.0
2022-08-08T06:58:03.791Z,19.4
2022-08-08T06:59:00.390Z,19.7
2022-08-08T07:00:10.399Z,19.8
2022-08-08T07:01:00.501Z,19.7
2022-08-08T07:02:27.857Z,19.8
2022-08-08T07:03:00.472Z,19.5
2022-08-08T07:04:37.900Z,19.9
2022-08-08T07:05:00.514Z,20.1
2022-08-08T07:06:02.261Z,20.5
2022-08-08T07:07:00.299Z,20.5
2022-08-08T07:08:00.308Z,20.4
2022-08-08T07:09:01.132Z,20.4
2022-08-08T07:10:00.891Z,20.6
2022-08-08T07:11:00.285Z,20.5
2022-08-08T07:12:00.332Z,20.4
2022-08-08T07:13:00.318Z,20.4
2022-08-08T07:14:01.641Z,20.3
2022-08-08T07:15:00.876Z,20.7
2022-08-08T07:16:04.824Z,20.7
2022-08-08T07:17:00.294Z,20.8
2022-08-08T07:18:34.435Z,20.7
2022-08-08T07:19:00.331Z,20.9
2022-08-08T07:20:00.425Z,21.2
2022-08-08T07:21:02.059Z,20.9
2022-08-08T07:22:05.059Z,21.2
2022-08-08T07:23:00.290Z,21.9
2022-08-08T07:24:02.780Z,22.1
2022-08-08T07:25:00.323Z,22.1
2022-08-08T07:26:00.361Z,21.8
2022-08-08T07:27:00.299Z,21.8
2022-08-08T07:28:02.668Z,21.5
2022-08-08T07:29:05.506Z,21.4
2022-08-08T07:30:08.201Z,21.5
2022-08-08T07:31:00.388Z,21.3
2022-08-08T07:32:00.278Z,21.5
2022-08-08T07:33:01.286Z,21.6
2022-08-08T07:34:00.345Z,21.9
2022-08-08T07:35:02.902Z,21.5
2022-08-08T07:36:00.447Z,21.0
2022-08-08T07:37:00.300Z,22.0
2022-08-08T07:38:10.301Z,21.8
2022-08-08T07:39:00.412Z,21.3
2022-08-08T07:40:00.371Z,21.4
2022-08-08T07:41:04.311Z,21.7
2022-08-08T07:42:04.890Z,21.7
2022-08-08T07:43:00.340Z,22.0
2022-08-08T07:44:00.308Z,22.2
2022-08-08T07:45:00.295Z,22.2
2022-08-08T07:46:17.346Z,22.5
2022-08-08T07:47:00.299Z,22.9
2022-08-08T07:48:00.393Z,22.7
2022-08-08T07:49:00.289Z,22.2
2022-08-08T07:50:00.311Z,22.0
2022-08-08T07:51:00.304Z,22.3
2022-08-08T07:52:00.397Z,22.5
2022-08-08T07:53:00.319Z,22.5
2022-08-08T07:54:02.873Z,22.4
2022-08-08T07:55:00.389Z,22.6
2022-08-08T07:56:00.307Z,22.9
2022-08-08T07:57:01.814Z,22.9
2022-08-08T07:58:00.317Z,22.8
2022-08-08T07:59:00.312Z,23.0
2022-08-08T08:00:00.476Z,23.0
2022-08-08T08:01:00.387Z,23.1
2022-08-08T08:02:36.576Z,23.3
2022-08-08T08:03:00.287Z,24.1
2022-08-08T08:04:00.352Z,24.4
2022-08-08T08:05:00.314Z,24.9
2022-08-08T08:06:00.525Z,24.5
2022-08-08T08:07:00.386Z,24.2
2022-08-08T08:08:00.313Z,23.9
2022-08-08T08:09:00.304Z,23.9
2022-08-08T08:10:00.319Z,23.5
2022-08-08T08:11:00.310Z,23.5
2022-08-08T08:12:00.405Z,23.9
2022-08-08T08:13:00.324Z,23.2
2022-08-08T08:14:07.996Z,23.2
2022-08-08T08:15:02.952Z,23.4
2022-08-08T08:16:00.299Z,23.6
2022-08-08T08:17:00.378Z,23.6
2022-08-08T08:18:00.298Z,23.3
2022-08-08T08:19:00.316Z,23.6
2022-08-08T08:20:00.317Z,23.8
2022-08-08T08:21:00.395Z,23.5
2022-08-08T08:22:00.756Z,23.0
2022-08-08T08:23:00.378Z,22.9
2022-08-08T08:24:02.767Z,23.3
2022-08-08T08:25:07.965Z,23.5
2022-08-08T08:26:00.414Z,23.5
2022-08-08T08:27:03.476Z,23.7
2022-08-08T08:28:00.314Z,24.0
2022-08-08T08:29:00.420Z,22.9
2022-08-08T08:30:00.316Z,22.6
2022-08-08T08:31:00.312Z,22.3
2022-08-08T08:32:03.543Z,22.0
2022-08-08T08:33:00.314Z,22.7
2022-08-08T08:34:00.305Z,23.1
2022-08-08T08:35:00.287Z,23.3
2022-08-08T08:36:19.340Z,23.4
2022-08-08T08:37:00.306Z,23.7
2022-08-08T08:38:18.171Z,23.9
2022-08-08T08:39:00.419Z,23.6
2022-08-08T08:40:02.895Z,23.4
2022-08-08T08:41:00.370Z,23.0
2022-08-08T08:42:00.305Z,23.0
2022-08-08T08:43:00.695Z,22.7
2022-08-08T08:44:03.986Z,22.0
2022-08-08T08:45:00.402Z,21.8
2022-08-08T08:46:03.326Z,21.6
2022-08-08T08:47:00.281Z,21.5
2022-08-08T08:48:00.829Z,21.4
2022-08-08T08:49:00.312Z,21.5
2022-08-08T08:50:00.378Z,21.5
2022-08-08T08:51:00.305Z,21.3
2022-08-08T08:52:00.564Z,21.2
2022-08-08T08:53:04.783Z,21.0
2022-08-08T08:54:01.116Z,21.4
2022-08-08T08:55:00.366Z,21.7
2022-08-08T08:56:01.904Z,21.7
2022-08-08T08:57:00.300Z,22.1
2022-08-08T08:58:00.312Z,22.4
2022-08-08T08:59:01.438Z,22.6
2022-08-08T09:00:04.808Z,22.3
2022-08-08T09:01:08.894Z,22.4
2022-08-08T09:02:00.454Z,21.9
2022-08-08T09:03:00.469Z,21.9
2022-08-08T09:04:00.306Z,22.0
2022-08-08T09:05:00.298Z,22.1
2022-08-08T09:06:00.309Z,22.1
2022-08-08T09:07:00.303Z,21.8
2022-08-08T09:08:12.367Z,21.5
2022-08-08T09:09:00.386Z,21.5
2022-08-08T09:10:00.289Z,21.5
2022-08-08T09:11:00.342Z,21.5
2022-08-08T09:12:02.390Z,21.4
2022-08-08T09:13:00.403Z,22.1
2022-08-08T09:14:00.394Z,21.9
2022-08-08T09:15:00.423Z,21.6
2022-08-08T09:16:02.777Z,21.4
2022-08-08T09:17:02.330Z,21.2
2022-08-08T09:18:00.756Z,21.2
2022-08-08T09:19:00.385Z,21.0
2022-08-08T09:21:57.182Z,20.9
2022-08-08T09:22:00.313Z,20.9
2022-08-08T09:22:06.124Z,20.9
2022-08-08T09:23:00.300Z,20.7
2022-08-08T09:24:00.433Z,20.7
2022-08-08T09:25:00.321Z,20.2
2022-08-08T09:26:02.336Z,20.4
2022-08-08T09:27:00.279Z,21.7
2022-08-08T09:28:00.535Z,22.4
2022-08-08T09:29:01.573Z,22.5
2022-08-08T09:30:00.404Z,22.6
2022-08-08T09:31:00.309Z,23.4
2022-08-08T09:32:00.292Z,23.2
2022-08-08T09:33:12.678Z,23.7
2022-08-08T09:34:30.789Z,23.7
2022-08-08T09:35:02.249Z,23.3
2022-08-08T09:36:00.273Z,23.0
2022-08-08T09:37:57.105Z,23.5
2022-08-08T09:38:02.161Z,23.0
2022-08-08T09:39:00.442Z,23.3
2022-08-08T09:40:00.392Z,23.7
2022-08-08T09:41:00.399Z,23.9
2022-08-08T09:42:20.226Z,24.0
2022-08-08T09:43:00.361Z,23.7
2022-08-08T09:44:06.112Z,23.8
2022-08-08T09:45:03.910Z,23.5
2022-08-08T09:46:02.726Z,23.0
2022-08-08T09:47:05.226Z,22.4
2022-08-08T09:48:09.768Z,22.1
2022-08-08T09:49:04.573Z,21.8
2022-08-08T09:50:03.380Z,21.6
2022-08-08T09:51:00.298Z,21.6
2022-08-08T09:52:07.094Z,21.6
2022-08-08T09:53:01.335Z,21.6
2022-08-08T09:54:09.604Z,21.3
2022-08-08T09:55:00.316Z,21.1
2022-08-08T09:56:05.324Z,21.0
2022-08-08T09:57:00.473Z,21.0
2022-08-08T09:58:00.323Z,21.0
2022-08-08T09:59:00.394Z,20.8
2022-08-08T10:00:31.625Z,20.9
2022-08-08T10:01:00.355Z,21.2
2022-08-08T10:02:12.182Z,21.8
2022-08-08T10:03:00.403Z,21.8
2022-08-08T10:04:02.500Z,21.7
2022-08-08T10:05:00.401Z,21.6
2022-08-08T10:06:00.432Z,21.5
2022-08-08T10:07:00.372Z,20.8
2022-08-08T10:08:01.261Z,21.2
2022-08-08T10:09:00.380Z,21.6
2022-08-08T10:10:01.690Z,21.5
2022-08-08T10:11:00.407Z,21.6
2022-08-08T10:12:26.895Z,21.5
2022-08-08T10:13:05.965Z,21.6
2022-08-08T10:14:00.399Z,20.9
2022-08-08T10:15:00.301Z,21.3
2022-08-08T10:16:01.783Z,21.9
2022-08-08T10:17:00.399Z,22.0
2022-08-08T10:18:06.221Z,21.7
2022-08-08T10:19:00.397Z,21.9
2022-08-08T10:20:00.664Z,22.0
2022-08-08T10:21:03.545Z,22.3
2022-08-08T10:22:00.474Z,21.9
2022-08-08T10:23:00.339Z,21.5
2022-08-08T10:24:00.330Z,21.9
2022-08-08T10:25:01.334Z,21.7
2022-08-08T10:26:00.487Z,21.8
2022-08-08T10:27:00.411Z,21.7
2022-08-08T10:28:00.382Z,21.4
2022-08-08T10:29:00.437Z,21.3
2022-08-08T10:30:00.392Z,21.8
2022-08-08T10:31:01.843Z,21.5
2022-08-08T10:32:00.322Z,21.4
2022-08-08T10:33:00.814Z,21.4
2022-08-08T10:34:19.207Z,21.3
2022-08-08T10:35:01.296Z,20.9
2022-08-08T10:36:08.054Z,20.8
2022-08-08T10:37:00.382Z,20.6
2022-08-08T10:38:00.346Z,20.8
2022-08-08T10:39:00.442Z,20.7
2022-08-08T10:40:02.491Z,20.5
2022-08-08T10:41:00.561Z,20.3
2022-08-08T10:42:15.349Z,20.0
2022-08-08T10:43:00.382Z,20.3
2022-08-08T10:44:00.311Z,20.2
2022-08-08T10:45:00.486Z,20.3
2022-08-08T10:46:00.330Z,20.7
2022-08-08T10:47:00.317Z,20.1
2022-08-08T10:48:00.297Z,20.3
2022-08-08T10:49:00.357Z,20.0
2022-08-08T10:50:02.844Z,20.1
2022-08-08T10:51:00.665Z,20.3
2022-08-08T10:52:00.399Z,20.4
2022-08-08T10:53:00.333Z,20.1
2022-08-08T10:54:02.060Z,19.9
2022-08-08T10:55:06.132Z,19.5
2022-08-08T10:56:00.746Z,19.5
2022-08-08T10:57:00.601Z,19.7
2022-08-08T10:58:00.739Z,19.3
2022-08-08T10:59:00.368Z,19.4
2022-08-08T11:00:00.476Z,19.3
2022-08-08T11:01:03.003Z,19.1
2022-08-08T11:02:00.778Z,19.1
2022-08-08T11:03:00.548Z,19.2
2022-08-08T11:04:02.459Z,19.5
2022-08-08T11:05:00.470Z,19.5
2022-08-08T11:06:01.205Z,19.7
2022-08-08T11:07:00.985Z,19.9
2022-08-08T11:08:38.720Z,19.9
2022-08-08T11:09:00.412Z,20.4
2022-08-08T11:10:00.361Z,20.7
2022-08-08T11:11:00.539Z,20.7
2022-08-08T11:12:12.826Z,20.8
2022-08-08T11:13:29.113Z,20.9
2022-08-08T11:14:00.659Z,20.9
2022-08-08T11:15:00.662Z,21.1
2022-08-08T11:16:07.742Z,21.0
2022-08-08T11:17:00.649Z,21.0
2022-08-08T11:18:02.280Z,21.1
2022-08-08T11:19:00.838Z,21.6
2022-08-08T11:20:05.322Z,21.9
2022-08-08T11:21:00.282Z,22.1
2022-08-08T11:22:00.317Z,22.3
2022-08-08T11:23:00.326Z,22.3
2022-08-08T11:24:01.897Z,22.5
2022-08-08T11:25:00.315Z,22.7
2022-08-08T11:26:00.401Z,22.6
2022-08-08T11:27:00.533Z,22.6
2022-08-08T11:28:00.397Z,22.6
2022-08-08T11:29:00.303Z,22.5
2022-08-08T11:30:19.647Z,21.7
2022-08-08T11:31:00.617Z,21.8
2022-08-08T11:32:00.351Z,22.0
2022-08-08T11:33:05.342Z,22.1
2022-08-08T11:34:03.353Z,22.0
2022-08-08T11:35:27.999Z,22.1
2022-08-08T11:36:00.545Z,21.6
2022-08-08T11:37:00.395Z,21.4
2022-08-08T11:38:39.057Z,21.4
2022-08-08T11:39:00.503Z,21.6
2022-08-08T11:40:00.375Z,21.8
2022-08-08T11:41:00.427Z,21.7
2022-08-08T11:42:00.373Z,21.8
2022-08-08T11:43:00.385Z,22.2
2022-08-08T11:44:00.734Z,22.3
2022-08-08T11:45:00.305Z,22.2
2022-08-08T11:46:14.305Z,21.8
2022-08-08T11:47:00.294Z,21.5
2022-08-08T11:48:02.508Z,21.6
2022-08-08T11:49:00.295Z,21.7
2022-08-08T11:50:00.377Z,21.8
2022-08-08T11:51:00.314Z,22.0
2022-08-08T11:52:00.302Z,22.1
2022-08-08T11:53:00.301Z,22.2
2022-08-08T11:54:02.183Z,22.3
2022-08-08T11:55:00.304Z,22.0
2022-08-08T11:56:00.427Z,22.1
2022-08-08T11:57:00.314Z,22.6
2022-08-08T11:58:05.438Z,22.3
2022-08-08T11:59:00.296Z,22.3
2022-08-08T12:00:05.414Z,22.2
2022-08-08T12:01:00.302Z,22.3
2022-08-08T12:02:21.292Z,22.6
2022-08-08T12:03:00.389Z,22.8
2022-08-08T12:04:00.341Z,22.8
2022-08-08T12:05:00.315Z,23.1
2022-08-08T12:06:00.471Z,23.0
2022-08-08T12:07:00.386Z,23.1
2022-08-08T12:08:00.299Z,23.0
2022-08-08T12:09:00.434Z,23.2
2022-08-08T12:10:02.725Z,23.6
2022-08-08T12:11:00.388Z,23.8
2022-08-08T12:12:00.422Z,24.1
2022-08-08T12:13:00.284Z,24.3
2022-08-08T12:14:03.495Z,24.4
2022-08-08T12:15:00.317Z,24.6
2022-08-08T12:16:00.316Z,24.8
2022-08-08T12:17:00.284Z,24.8
2022-08-08T12:18:00.413Z,24.9
2022-08-08T12:19:00.319Z,24.8
2022-08-08T12:20:00.400Z,24.6
2022-08-08T12:21:00.284Z,24.4
2022-08-08T12:22:08.797Z,24.5
2022-08-08T12:23:00.300Z,24.7
2022-08-08T12:24:00.458Z,24.9
2022-08-08T12:25:00.321Z,25.0
2022-08-08T12:26:00.502Z,24.9
2022-08-08T12:27:00.297Z,25.0
2022-08-08T12:28:00.314Z,25.1
2022-08-08T12:29:00.317Z,25.2
2022-08-08T12:30:01.759Z,25.4
2022-08-08T12:31:00.353Z,25.3
2022-08-08T12:32:00.390Z,25.6
2022-08-08T12:33:00.356Z,25.5
2022-08-08T12:34:01.955Z,25.4
2022-08-08T12:35:17.448Z,25.5
2022-08-08T12:36:00.281Z,25.2
2022-08-08T12:37:00.466Z,25.2
2022-08-08T12:38:02.131Z,25.3
2022-08-08T12:39:00.498Z,25.3
2022-08-08T12:40:02.658Z,25.6
2022-08-08T12:41:16.517Z,25.6
2022-08-08T12:42:01.433Z,25.3
2022-08-08T12:43:00.419Z,25.5
2022-08-08T12:44:01.451Z,25.7
2022-08-08T12:45:00.319Z,25.9
2022-08-08T12:46:03.472Z,26.1
2022-08-08T12:47:02.878Z,26.2
2022-08-08T12:48:10.022Z,26.5
2022-08-08T12:49:43.252Z,26.6
2022-08-08T12:50:00.293Z,26.6
2022-08-08T12:51:00.364Z,26.7
2022-08-08T12:52:01.201Z,26.9
2022-08-08T12:53:00.421Z,27.1
2022-08-08T12:54:00.434Z,27.0
2022-08-08T12:55:00.304Z,26.9
2022-08-08T12:56:18.288Z,26.9
2022-08-08T12:57:00.304Z,26.9
2022-08-08T12:58:00.303Z,26.8
2022-08-08T12:59:00.394Z,26.9
2022-08-08T13:00:04.379Z,26.9
2022-08-08T13:01:00.345Z,27.0
2022-08-08T13:02:00.386Z,27.0
2022-08-08T13:03:00.873Z,26.7
2022-08-08T13:04:00.379Z,26.7
2022-08-08T13:05:00.400Z,26.9
2022-08-08T13:06:03.430Z,27.1
2022-08-08T13:07:00.909Z,27.5
2022-08-08T13:08:02.983Z,27.7
2022-08-08T13:09:00.425Z,27.8
2022-08-08T13:10:04.875Z,27.9
2022-08-08T13:11:00.541Z,27.9
2022-08-08T13:12:26.771Z,28.0
2022-08-08T13:13:00.315Z,28.0
2022-08-08T13:14:00.312Z,28.2
2022-08-08T13:15:00.412Z,28.2
2022-08-08T13:16:01.090Z,28.4
2022-08-08T13:17:00.416Z,28.6
2022-08-08T13:18:10.666Z,28.6